createdAt,value
2019-03-19T00:00:39.288Z,21.00
2019-03-19T00:03:08.894Z,17.17
2019-03-19T00:05:38.751Z,23.03
2019-03-19T00:08:08.353Z,17.80
2019-03-19T00:10:38.056Z,18.63
2019-03-19T00:13:07.798Z,18.37
2019-03-19T00:15:37.495Z,18.37
2019-03-19T00:18:07.189Z,21.57
2019-03-19T00:20:36.883Z,24.10
2019-03-19T00:23:06.640Z,19.07
2019-03-19T00:25:36.319Z,19.90
2019-03-19T00:28:06.085Z,16.70
2019-03-19T00:30:35.677Z,23.07
2019-03-19T00:33:05.558Z,17.87
2019-03-19T00:35:35.525Z,16.10
2019-03-19T00:38:05.371Z,16.87
2019-03-19T00:40:35.016Z,17.43
2019-03-19T00:43:04.823Z,20.03
2019-03-19T00:45:34.450Z,15.17
2019-03-19T00:48:04.246Z,21.03
2019-03-19T00:50:33.805Z,14.37
2019-03-19T00:53:03.782Z,20.43
2019-03-19T00:55:40.731Z,20.70
2019-03-19T00:58:04.661Z,21.70
2019-03-19T01:00:34.202Z,21.20
2019-03-19T01:03:03.886Z,19.67
2019-03-19T01:05:33.436Z,23.00
2019-03-19T01:08:03.251Z,21.13
2019-03-19T01:10:33.031Z,17.33
2019-03-19T01:13:02.773Z,20.13
2019-03-19T01:15:32.470Z,17.43
2019-03-19T01:18:02.115Z,14.47
2019-03-19T01:20:31.721Z,16.20
2019-03-19T01:23:01.501Z,18.13
2019-03-19T01:25:31.215Z,14.73
2019-03-19T01:28:00.988Z,18.33
2019-03-19T01:30:30.725Z,17.57
2019-03-19T01:33:00.382Z,14.63
2019-03-19T01:35:30.181Z,21.33
2019-03-19T01:37:59.749Z,21.30
2019-03-19T01:40:29.581Z,19.20
2019-03-19T01:42:59.160Z,25.63
2019-03-19T01:45:28.969Z,21.37
2019-03-19T01:47:58.547Z,20.73
2019-03-19T01:50:28.154Z,20.03
2019-03-19T01:52:57.950Z,21.17
2019-03-19T01:55:27.800Z,22.80
2019-03-19T01:57:57.371Z,17.40
2019-03-19T02:00:27.087Z,22.50
2019-03-19T02:02:56.799Z,26.77
2019-03-19T02:05:26.546Z,17.50
2019-03-19T02:07:56.074Z,22.80
2019-03-19T02:10:25.570Z,16.90
2019-03-19T02:12:55.227Z,20.07
2019-03-19T02:15:24.965Z,23.90
2019-03-19T02:17:54.671Z,18.57
2019-03-19T02:20:24.327Z,23.57
2019-03-19T02:22:53.812Z,26.97
2019-03-19T02:25:23.417Z,21.03
2019-03-19T02:27:53.048Z,17.47
2019-03-19T02:30:22.759Z,20.27
2019-03-19T02:32:52.456Z,22.07
2019-03-19T02:35:22.233Z,20.77
2019-03-19T02:37:51.741Z,15.77
2019-03-19T02:40:21.530Z,24.50
2019-03-19T02:42:51.260Z,24.83
2019-03-19T02:45:21.166Z,22.07
2019-03-19T02:47:50.744Z,22.67
2019-03-19T02:50:20.432Z,26.60
2019-03-19T02:52:50.163Z,19.10
2019-03-19T02:55:19.835Z,17.97
2019-03-19T02:57:49.442Z,15.53
2019-03-19T03:00:19.772Z,20.77
2019-03-19T03:02:49.655Z,23.80
2019-03-19T03:05:23.154Z,18.93
2019-03-19T03:07:52.797Z,21.57
2019-03-19T03:10:22.341Z,23.80
2019-03-19T03:12:52.274Z,26.33
2019-03-19T03:15:21.816Z,21.37
2019-03-19T03:17:51.636Z,24.13
2019-03-19T03:20:21.217Z,17.37
2019-03-19T03:22:50.767Z,25.97
2019-03-19T03:25:20.412Z,28.90
2019-03-19T03:27:49.964Z,22.80
2019-03-19T03:30:23.872Z,22.47
2019-03-19T03:32:53.790Z,22.70
2019-03-19T03:35:23.347Z,22.53
2019-03-19T03:37:53.371Z,20.70
2019-03-19T03:40:22.915Z,25.60
2019-03-19T03:42:52.556Z,17.67
2019-03-19T03:45:22.289Z,23.57
2019-03-19T03:47:51.996Z,17.43
2019-03-19T03:50:21.700Z,24.47
2019-03-19T03:52:51.428Z,18.73
2019-03-19T03:55:21.656Z,26.10
2019-03-19T03:57:51.286Z,25.03
2019-03-19T04:00:25.519Z,26.80
2019-03-19T04:02:55.155Z,20.77
2019-03-19T04:05:24.791Z,25.77
2019-03-19T04:07:54.365Z,26.33
2019-03-19T04:10:24.199Z,26.93
2019-03-19T04:12:54.039Z,23.23
2019-03-19T04:15:23.684Z,21.40
2019-03-19T04:17:53.374Z,23.33
2019-03-19T04:20:23.208Z,32.70
2019-03-19T04:22:52.893Z,21.10
2019-03-19T04:25:22.654Z,22.23
2019-03-19T04:27:52.328Z,20.13
2019-03-19T04:30:22.411Z,28.50
2019-03-19T04:32:52.047Z,19.80
2019-03-19T04:35:22.057Z,28.37
2019-03-19T04:37:51.583Z,19.63
2019-03-19T04:40:21.293Z,21.37
2019-03-19T04:42:50.858Z,22.43
2019-03-19T04:45:20.691Z,29.63
2019-03-19T04:47:50.281Z,25.07
2019-03-19T04:50:20.188Z,23.93
2019-03-19T04:52:49.770Z,24.50
2019-03-19T04:55:19.246Z,27.73
2019-03-19T04:57:49.060Z,30.67
2019-03-19T05:00:19.925Z,32.33
2019-03-19T05:02:49.592Z,29.63
2019-03-19T05:05:19.159Z,33.13
2019-03-19T05:07:48.722Z,29.93
2019-03-19T05:10:19.298Z,28.83
2019-03-19T05:12:48.893Z,28.17
2019-03-19T05:15:18.598Z,24.70
2019-03-19T05:17:48.250Z,33.80
2019-03-19T05:20:18.951Z,23.37
2019-03-19T05:22:48.786Z,24.73
2019-03-19T05:25:18.338Z,28.73
2019-03-19T05:27:48.165Z,26.40
2019-03-19T05:30:20.681Z,31.17
2019-03-19T05:32:50.543Z,25.73
2019-03-19T05:35:20.082Z,25.30
2019-03-19T05:37:49.871Z,26.07
2019-03-19T05:40:19.577Z,31.73
2019-03-19T05:42:49.263Z,25.33
2019-03-19T05:45:18.963Z,24.97
2019-03-19T05:47:48.840Z,32.40
2019-03-19T05:50:23.354Z,36.17
2019-03-19T05:52:53.099Z,25.00
2019-03-19T05:55:22.626Z,30.77
2019-03-19T05:57:52.099Z,25.57
2019-03-19T06:00:23.505Z,26.50
2019-03-19T06:02:53.229Z,37.70
2019-03-19T06:05:23.140Z,27.73
2019-03-19T06:07:52.719Z,25.27
2019-03-19T06:10:22.533Z,25.83
2019-03-19T06:12:52.168Z,29.37
2019-03-19T06:15:22.027Z,25.93
2019-03-19T06:17:51.616Z,27.73
2019-03-19T06:20:21.834Z,28.30
2019-03-19T06:22:51.575Z,24.87
2019-03-19T06:25:21.165Z,36.47
2019-03-19T06:28:00.182Z,29.33
2019-03-19T06:30:30.340Z,22.43
2019-03-19T06:33:00.536Z,26.23
2019-03-19T06:35:30.315Z,31.50
2019-03-19T06:38:01.006Z,28.60
2019-03-19T06:40:30.785Z,21.80
2019-03-19T06:43:01.036Z,24.33
2019-03-19T06:45:30.685Z,18.53
2019-03-19T06:48:01.411Z,17.67
2019-03-19T06:50:32.606Z,21.57
2019-03-19T06:53:03.007Z,20.83
2019-03-19T06:55:32.835Z,25.27
2019-03-19T06:58:10.570Z,22.00
2019-03-19T07:00:33.899Z,17.87
2019-03-19T07:03:04.039Z,23.13
2019-03-19T07:05:33.706Z,21.97
2019-03-19T07:08:05.242Z,25.70
2019-03-19T07:10:35.095Z,27.23
2019-03-19T07:13:04.903Z,23.57
2019-03-19T07:15:35.128Z,22.87
2019-03-19T07:18:06.278Z,30.77
2019-03-19T07:20:36.735Z,27.57
2019-03-19T07:23:07.321Z,27.37
2019-03-19T07:25:37.197Z,24.07
2019-03-19T07:28:06.936Z,14.43
2019-03-19T07:30:36.992Z,24.50
2019-03-19T07:33:08.179Z,24.57
2019-03-19T07:35:38.032Z,23.03
2019-03-19T07:38:09.262Z,25.10
2019-03-19T07:40:38.979Z,23.40
2019-03-19T07:43:08.792Z,29.03
2019-03-19T07:45:38.424Z,23.80
2019-03-19T07:48:08.117Z,26.90
2019-03-19T07:50:38.835Z,27.43
2019-03-19T07:53:10.074Z,25.57
2019-03-19T07:55:39.891Z,22.37
2019-03-19T07:58:09.718Z,26.03
2019-03-19T08:00:40.848Z,26.67
2019-03-19T08:03:15.994Z,26.27
2019-03-19T08:05:41.834Z,35.07
2019-03-19T08:08:11.708Z,22.90
2019-03-19T08:10:41.415Z,21.47
2019-03-19T08:13:11.608Z,21.43
2019-03-19T08:15:41.225Z,25.70
2019-03-19T08:18:10.999Z,26.83
2019-03-19T08:20:40.624Z,24.80
2019-03-19T08:23:11.137Z,26.43
2019-03-19T08:25:41.047Z,25.33
2019-03-19T08:28:11.327Z,21.17
2019-03-19T08:30:42.706Z,24.57
2019-03-19T08:33:12.503Z,28.77
2019-03-19T08:35:42.080Z,26.03
2019-03-19T08:38:11.949Z,19.30
2019-03-19T08:40:42.667Z,27.97
2019-03-19T08:43:12.471Z,20.57
2019-03-19T08:45:43.896Z,18.60
2019-03-19T08:48:13.714Z,21.77
2019-03-19T08:50:43.345Z,20.67
2019-03-19T08:53:13.106Z,19.97
2019-03-19T08:55:42.854Z,20.50
2019-03-19T08:58:12.566Z,25.73
2019-03-19T09:00:42.721Z,18.77
2019-03-19T09:03:13.123Z,21.70
2019-03-19T09:05:44.529Z,24.73
2019-03-19T09:08:14.177Z,19.67
2019-03-19T09:10:44.022Z,20.10
2019-03-19T09:13:14.326Z,32.73
2019-03-19T09:15:45.451Z,23.10
2019-03-19T09:18:16.122Z,21.97
2019-03-19T09:20:45.929Z,21.53
2019-03-19T09:23:16.365Z,21.33
2019-03-19T09:25:46.124Z,20.63
2019-03-19T09:28:15.822Z,30.77
2019-03-19T09:30:45.611Z,21.93
2019-03-19T09:33:15.247Z,20.00
2019-03-19T09:35:44.902Z,18.50
2019-03-19T09:38:14.748Z,20.80
2019-03-19T09:40:45.148Z,26.87
2019-03-19T09:43:16.167Z,22.83
2019-03-19T09:45:45.951Z,25.27
2019-03-19T09:48:16.172Z,17.13
2019-03-19T09:50:46.383Z,17.70
2019-03-19T09:53:18.730Z,23.00
2019-03-19T09:55:48.652Z,19.70
2019-03-19T09:58:19.268Z,22.70
2019-03-19T10:00:50.756Z,23.33
2019-03-19T10:03:20.875Z,18.33
2019-03-19T10:05:50.640Z,20.50
2019-03-19T10:08:20.846Z,23.87
2019-03-19T10:10:52.389Z,24.97
2019-03-19T10:13:22.015Z,20.13
2019-03-19T10:15:51.916Z,17.27
2019-03-19T10:18:22.257Z,20.27
2019-03-19T10:20:52.056Z,18.83
2019-03-19T10:23:21.721Z,20.13
2019-03-19T10:25:52.558Z,19.73
2019-03-19T10:28:22.536Z,13.80
2019-03-19T10:30:52.391Z,18.33
2019-03-19T10:33:22.639Z,18.00
2019-03-19T10:36:04.164Z,22.47
2019-03-19T10:38:43.194Z,15.40
2019-03-19T10:41:15.607Z,14.80
2019-03-19T10:43:47.626Z,19.03
2019-03-19T10:46:23.060Z,11.03
2019-03-19T10:48:56.731Z,10.80
2019-03-19T10:51:26.469Z,12.43
2019-03-19T10:53:56.129Z,11.53
2019-03-19T10:56:25.892Z,9.93
2019-03-19T10:59:01.130Z,12.07
2019-03-19T11:01:34.388Z,13.70
2019-03-19T11:04:13.763Z,13.70
2019-03-19T11:06:44.329Z,12.70
2019-03-19T11:09:14.012Z,12.23
2019-03-19T11:11:45.227Z,11.60
2019-03-19T11:14:14.906Z,13.77
2019-03-19T11:16:45.180Z,8.93
2019-03-19T11:19:16.627Z,11.70
2019-03-19T11:21:46.512Z,9.27
2019-03-19T11:24:16.236Z,11.43
2019-03-19T11:26:47.354Z,13.90
2019-03-19T11:29:17.829Z,8.77
2019-03-19T11:31:47.599Z,11.37
2019-03-19T11:34:17.438Z,11.43
2019-03-19T11:36:57.475Z,7.57
2019-03-19T11:39:20.108Z,9.53
2019-03-19T11:41:50.274Z,8.77
2019-03-19T11:44:21.165Z,8.73
2019-03-19T11:46:53.509Z,10.87
2019-03-19T11:49:24.451Z,11.07
2019-03-19T11:51:54.293Z,9.53
2019-03-19T11:54:24.788Z,11.43
2019-03-19T11:56:54.532Z,12.07
2019-03-19T11:59:24.233Z,13.87
2019-03-19T12:01:54.778Z,7.00
2019-03-19T12:04:25.118Z,8.57
2019-03-19T12:06:56.150Z,14.07
2019-03-19T12:09:26.880Z,9.33
2019-03-19T12:11:57.227Z,6.87
2019-03-19T12:14:26.853Z,12.87
2019-03-19T12:16:58.068Z,9.20
2019-03-19T12:19:29.385Z,10.93
2019-03-19T12:21:59.130Z,13.37
2019-03-19T12:24:29.556Z,14.67
2019-03-19T12:26:59.315Z,8.93
2019-03-19T12:29:29.203Z,10.83
2019-03-19T12:31:59.441Z,11.10
2019-03-19T12:34:30.374Z,10.93
2019-03-19T12:37:00.143Z,9.00
2019-03-19T12:39:29.856Z,7.63
2019-03-19T12:41:59.764Z,9.67
2019-03-19T12:44:30.337Z,7.20
2019-03-19T12:47:00.167Z,7.07
2019-03-19T12:49:29.805Z,10.03
2019-03-19T12:52:00.800Z,10.97
2019-03-19T12:54:30.625Z,10.60
2019-03-19T12:57:00.416Z,7.33
2019-03-19T12:59:30.216Z,7.40
2019-03-19T13:02:00.122Z,11.93
2019-03-19T13:04:29.785Z,12.50
2019-03-19T13:06:59.447Z,8.03
2019-03-19T13:09:29.187Z,8.27
2019-03-19T13:11:59.422Z,7.97
2019-03-19T13:14:29.187Z,9.57
2019-03-19T13:17:00.003Z,10.30
2019-03-19T13:19:29.833Z,8.53
2019-03-19T13:21:59.732Z,7.77
2019-03-19T13:24:29.516Z,9.23
2019-03-19T13:26:59.404Z,7.67
2019-03-19T13:29:30.575Z,6.27
2019-03-19T13:32:00.434Z,8.53
2019-03-19T13:34:31.418Z,9.07
2019-03-19T13:37:01.945Z,8.67
2019-03-19T13:39:31.703Z,7.00
2019-03-19T13:42:01.419Z,10.57
2019-03-19T13:44:31.213Z,9.73
2019-03-19T13:47:01.117Z,6.10
2019-03-19T13:49:31.011Z,8.80
2019-03-19T13:52:02.328Z,12.17
2019-03-19T13:54:31.985Z,11.23
2019-03-19T13:57:01.776Z,5.80
2019-03-19T13:59:31.458Z,10.07
2019-03-19T14:02:01.185Z,8.53
2019-03-19T14:04:59.940Z,5.93
2019-03-19T14:07:29.829Z,11.37
2019-03-19T14:09:59.613Z,9.17
2019-03-19T14:12:29.315Z,8.37
2019-03-19T14:14:58.894Z,7.67
2019-03-19T14:17:28.493Z,6.60
2019-03-19T14:19:58.222Z,11.40
2019-03-19T14:22:27.960Z,9.17
2019-03-19T14:24:57.607Z,6.60
2019-03-19T14:27:27.520Z,12.03
2019-03-19T14:29:57.175Z,6.40
2019-03-19T14:32:27.294Z,8.57
2019-03-19T14:34:58.714Z,11.37
2019-03-19T14:37:28.772Z,9.33
2019-03-19T14:39:58.958Z,10.13
2019-03-19T14:42:28.878Z,9.00
2019-03-19T14:44:59.085Z,8.03
2019-03-19T14:47:29.881Z,10.70
2019-03-19T14:49:59.522Z,7.40
2019-03-19T14:52:29.407Z,6.80
2019-03-19T14:54:59.061Z,9.17
2019-03-19T14:57:30.270Z,6.23
2019-03-19T14:59:59.890Z,9.87
2019-03-19T15:02:29.960Z,8.27
2019-03-19T15:04:59.591Z,7.77
2019-03-19T15:07:29.688Z,9.77
2019-03-19T15:10:00.110Z,7.93
2019-03-19T15:12:30.694Z,7.67
2019-03-19T15:15:00.371Z,8.93
2019-03-19T15:17:31.231Z,8.37
2019-03-19T15:20:02.502Z,6.77
2019-03-19T15:22:33.057Z,9.77
2019-03-19T15:25:02.819Z,11.33
2019-03-19T15:27:33.297Z,9.03
2019-03-19T15:30:10.520Z,12.50
2019-03-19T15:32:40.465Z,7.97
2019-03-19T15:35:12.019Z,11.73
2019-03-19T15:37:43.667Z,6.40
2019-03-19T15:40:21.094Z,6.23
2019-03-19T15:42:50.817Z,7.77
2019-03-19T15:45:27.099Z,10.90
2019-03-19T15:47:58.311Z,8.83
2019-03-19T15:50:29.523Z,11.80
2019-03-19T15:52:59.217Z,11.03
2019-03-19T15:55:32.129Z,7.43
2019-03-19T15:58:04.181Z,7.50
2019-03-19T16:00:34.004Z,10.07
2019-03-19T16:03:04.170Z,9.57
2019-03-19T16:05:34.209Z,9.40
2019-03-19T16:08:03.962Z,12.37
2019-03-19T16:10:34.158Z,6.60
2019-03-19T16:13:05.653Z,11.97
2019-03-19T16:15:35.449Z,8.13
2019-03-19T16:18:06.869Z,10.93
2019-03-19T16:20:38.187Z,8.23
2019-03-19T16:23:09.521Z,10.07
2019-03-19T16:25:39.155Z,13.43
2019-03-19T16:28:09.487Z,9.83
2019-03-19T16:30:40.826Z,5.63
2019-03-19T16:33:10.619Z,6.47
2019-03-19T16:35:40.985Z,7.33
2019-03-19T16:38:10.628Z,9.40
2019-03-19T16:40:40.295Z,8.40
2019-03-19T16:43:11.163Z,11.20
2019-03-19T16:45:58.249Z,9.70
2019-03-19T16:48:29.178Z,11.43
2019-03-19T16:50:59.525Z,8.73
2019-03-19T16:53:29.829Z,13.93
2019-03-19T16:56:08.892Z,8.73
2019-03-19T16:58:38.642Z,12.33
2019-03-19T17:01:08.463Z,6.10
2019-03-19T17:03:40.948Z,7.00
2019-03-19T17:06:11.673Z,7.37
2019-03-19T17:08:41.457Z,11.27
2019-03-19T17:11:11.949Z,7.63
2019-03-19T17:13:43.192Z,8.27
2019-03-19T17:16:14.943Z,10.70
2019-03-19T17:18:45.980Z,13.30
2019-03-19T17:21:18.564Z,6.13
2019-03-19T17:23:55.615Z,8.63
2019-03-19T17:26:25.344Z,11.30
2019-03-19T17:28:55.187Z,8.27
2019-03-19T17:31:32.182Z,13.17
2019-03-19T17:34:02.493Z,14.47
2019-03-19T17:36:33.745Z,17.83
2019-03-19T17:39:03.502Z,18.80
2019-03-19T17:41:33.319Z,18.00
2019-03-19T17:44:03.968Z,16.07
2019-03-19T17:46:33.725Z,15.03
2019-03-19T17:49:04.319Z,14.17
2019-03-19T17:51:34.132Z,13.90
2019-03-19T17:54:03.859Z,13.60
2019-03-19T17:56:33.569Z,13.07
2019-03-19T17:59:04.915Z,15.80
2019-03-19T18:01:36.285Z,12.90
2019-03-19T18:04:06.112Z,13.33
2019-03-19T18:06:35.883Z,16.03
2019-03-19T18:09:08.137Z,16.33
2019-03-19T18:11:38.025Z,13.63
2019-03-19T18:14:07.899Z,12.57
2019-03-19T18:16:37.538Z,17.43
2019-03-19T18:19:09.807Z,15.13
2019-03-19T18:21:39.648Z,10.50
2019-03-19T18:24:09.691Z,10.30
2019-03-19T18:26:40.430Z,12.80
2019-03-19T18:29:10.649Z,17.53
2019-03-19T18:31:40.585Z,16.27
2019-03-19T18:34:10.715Z,13.40
2019-03-19T18:36:40.663Z,12.03
2019-03-19T18:39:10.366Z,11.50
2019-03-19T18:41:40.378Z,12.30
2019-03-19T18:44:10.161Z,15.17
2019-03-19T18:46:40.520Z,11.73
2019-03-19T18:49:10.187Z,12.10
2019-03-19T18:51:39.988Z,12.47
2019-03-19T18:54:09.708Z,12.43
2019-03-19T18:56:39.579Z,15.17
2019-03-19T18:59:09.579Z,11.73
2019-03-19T19:01:39.298Z,10.03
2019-03-19T19:04:09.007Z,15.87
2019-03-19T19:06:40.076Z,11.97
2019-03-19T19:09:11.691Z,16.63
2019-03-19T19:11:41.402Z,18.67
2019-03-19T19:14:12.096Z,18.00
2019-03-19T19:16:41.807Z,15.50
2019-03-19T19:19:11.566Z,15.07
2019-03-19T19:21:41.262Z,18.43
2019-03-19T19:24:10.895Z,24.30
2019-03-19T19:26:40.657Z,19.13
2019-03-19T19:29:10.415Z,19.17
2019-03-19T19:31:40.421Z,20.63
2019-03-19T19:34:10.225Z,17.00
2019-03-19T19:36:39.949Z,11.63
2019-03-19T19:39:09.866Z,16.03
2019-03-19T19:41:39.717Z,18.57
2019-03-19T19:44:09.526Z,17.90
2019-03-19T19:46:39.929Z,16.00
2019-03-19T19:49:14.872Z,15.83
2019-03-19T19:51:45.599Z,10.60
2019-03-19T19:54:15.352Z,10.87
2019-03-19T19:57:05.613Z,17.47
2019-03-19T19:59:35.400Z,15.77
2019-03-19T20:02:05.294Z,18.17
2019-03-19T20:04:35.166Z,18.60
2019-03-19T20:07:04.908Z,12.43
2019-03-19T20:09:34.686Z,13.23
2019-03-19T20:12:05.080Z,19.33
2019-03-19T20:14:34.933Z,14.80
2019-03-19T20:17:04.742Z,17.30
2019-03-19T20:19:34.849Z,17.47
2019-03-19T20:22:04.946Z,18.30
2019-03-19T20:24:34.777Z,15.47
2019-03-19T20:27:05.227Z,12.40
2019-03-19T20:29:37.049Z,18.40
2019-03-19T20:32:06.757Z,15.43
2019-03-19T20:34:36.733Z,13.63
2019-03-19T20:37:06.641Z,17.83
2019-03-19T20:39:36.380Z,16.10
2019-03-19T20:42:06.139Z,15.03
2019-03-19T20:44:35.884Z,13.20
2019-03-19T20:47:06.404Z,14.77
2019-03-19T20:49:46.919Z,14.60
2019-03-19T20:52:08.022Z,18.53
2019-03-19T20:54:37.630Z,16.50
2019-03-19T20:57:07.246Z,17.67
2019-03-19T20:59:36.932Z,16.97
2019-03-19T21:02:07.335Z,14.67
2019-03-19T21:04:37.119Z,12.97
2019-03-19T21:07:08.480Z,13.43
2019-03-19T21:09:38.191Z,15.77
2019-03-19T21:12:09.791Z,16.60
2019-03-19T21:14:40.131Z,14.37
2019-03-19T21:17:09.952Z,14.03
2019-03-19T21:19:40.229Z,13.77
2019-03-19T21:22:10.308Z,14.53
2019-03-19T21:24:41.692Z,13.07
2019-03-19T21:27:11.636Z,15.07
2019-03-19T21:29:42.847Z,17.70
2019-03-19T21:32:13.485Z,14.80
2019-03-19T21:34:44.067Z,11.03
2019-03-19T21:37:13.783Z,17.73
2019-03-19T21:39:43.546Z,14.43
2019-03-19T21:42:17.765Z,13.03
2019-03-19T21:44:47.518Z,12.50
2019-03-19T21:47:18.947Z,12.80
2019-03-19T21:49:49.271Z,18.53
2019-03-19T21:52:22.290Z,14.63
2019-03-19T21:54:52.008Z,12.97
2019-03-19T21:57:21.814Z,15.57
2019-03-19T21:59:51.579Z,16.37
2019-03-19T22:02:21.281Z,14.93
2019-03-19T22:04:51.541Z,12.07
2019-03-19T22:07:21.897Z,16.33
2019-03-19T22:09:51.698Z,23.80
2019-03-19T22:12:23.010Z,16.80
2019-03-19T22:14:53.495Z,11.47
2019-03-19T22:17:25.225Z,13.40
2019-03-19T22:19:55.875Z,14.97
2019-03-19T22:22:25.586Z,13.23
2019-03-19T22:24:56.867Z,13.77
2019-03-19T22:27:29.896Z,14.43
2019-03-19T22:29:59.626Z,11.67
2019-03-19T22:32:29.971Z,17.03
2019-03-19T22:34:59.857Z,13.70
2019-03-19T22:37:30.337Z,16.03
2019-03-19T22:40:02.189Z,14.57
2019-03-19T22:42:32.092Z,15.20
2019-03-19T22:45:01.996Z,14.47
2019-03-19T22:47:31.941Z,14.67
2019-03-19T22:50:04.647Z,12.77
2019-03-19T22:52:35.773Z,12.70
2019-03-19T22:55:09.440Z,11.37
2019-03-19T22:57:39.515Z,15.87
2019-03-19T23:00:16.330Z,13.73
2019-03-19T23:02:46.596Z,18.07
2019-03-19T23:05:16.628Z,10.27
2019-03-19T23:07:46.305Z,13.77
2019-03-19T23:10:16.191Z,14.77
2019-03-19T23:12:50.438Z,10.43
2019-03-19T23:15:20.722Z,11.23
2019-03-19T23:17:50.461Z,11.07
2019-03-19T23:20:20.129Z,10.23
2019-03-19T23:22:51.427Z,13.93
2019-03-19T23:25:21.271Z,9.97
2019-03-19T23:27:53.326Z,15.17
2019-03-19T23:30:27.325Z,13.47
2019-03-19T23:32:58.556Z,12.43
2019-03-19T23:35:28.126Z,13.10
2019-03-19T23:37:57.852Z,10.13
2019-03-19T23:40:27.510Z,12.80
2019-03-19T23:42:57.718Z,11.27
2019-03-19T23:45:28.128Z,13.70
2019-03-19T23:47:58.074Z,15.50
2019-03-19T23:50:28.295Z,11.13
2019-03-19T23:52:59.658Z,13.10
2019-03-19T23:55:29.344Z,11.70
2019-03-19T23:57:58.955Z,12.20
